createdAt,value
2022-09-12T00:00:55.623Z,26.80
2022-09-12T00:01:55.627Z,27.60
2022-09-12T00:02:55.582Z,28.00
2022-09-12T00:03:55.538Z,25.50
2022-09-12T00:04:55.520Z,27.70
2022-09-12T00:05:55.502Z,28.30
2022-09-12T00:06:55.481Z,25.10
2022-09-12T00:07:55.489Z,28.00
2022-09-12T00:08:55.441Z,26.00
2022-09-12T00:09:55.424Z,27.50
2022-09-12T00:10:55.404Z,28.20
2022-09-12T00:11:55.390Z,27.70
2022-09-12T00:12:55.394Z,26.90
2022-09-12T00:13:55.351Z,26.00
2022-09-12T00:14:55.330Z,26.70
2022-09-12T00:15:55.297Z,24.30
2022-09-12T00:16:56.279Z,22.80
2022-09-12T00:17:56.297Z,23.40
2022-09-12T00:18:55.249Z,22.50
2022-09-12T00:19:55.229Z,21.10
2022-09-12T00:20:55.211Z,23.70
2022-09-12T00:21:55.191Z,22.60
2022-09-12T00:22:55.197Z,21.60
2022-09-12T00:23:55.154Z,24.20
2022-09-12T00:24:55.125Z,22.20
2022-09-12T00:25:55.109Z,22.20
2022-09-12T00:26:55.086Z,22.00
2022-09-12T00:27:55.093Z,25.40
2022-09-12T00:28:55.049Z,23.00
2022-09-12T00:29:55.025Z,23.20
2022-09-12T00:30:55.000Z,25.50
2022-09-12T00:31:55.015Z,24.70
2022-09-12T00:32:54.996Z,21.70
2022-09-12T00:33:54.960Z,25.70
2022-09-12T00:34:54.919Z,23.10
2022-09-12T00:35:55.903Z,23.40
2022-09-12T00:36:54.888Z,24.30
2022-09-12T00:37:54.894Z,25.00
2022-09-12T00:38:54.905Z,23.70
2022-09-12T00:39:54.855Z,23.90
2022-09-12T00:40:54.811Z,23.00
2022-09-12T00:41:54.789Z,23.00
2022-09-12T00:42:54.799Z,23.40
2022-09-12T00:43:54.754Z,24.80
2022-09-12T00:44:54.735Z,24.20
2022-09-12T00:45:54.743Z,25.80
2022-09-12T00:46:54.697Z,24.50
2022-09-12T00:47:54.707Z,25.20
2022-09-12T00:48:54.659Z,25.10
2022-09-12T00:49:54.641Z,21.90
2022-09-12T00:50:54.620Z,26.50
2022-09-12T00:51:54.606Z,24.60
2022-09-12T00:52:54.615Z,23.30
2022-09-12T00:53:54.564Z,24.20
2022-09-12T00:54:54.545Z,24.50
2022-09-12T00:55:54.527Z,22.50
2022-09-12T00:56:54.505Z,25.40
2022-09-12T00:57:54.520Z,25.20
2022-09-12T00:58:54.467Z,26.40
2022-09-12T00:59:54.447Z,24.50
2022-09-12T01:00:54.489Z,27.40
2022-09-12T01:01:54.480Z,26.80
2022-09-12T01:02:54.422Z,26.40
2022-09-12T01:03:54.375Z,26.60
2022-09-12T01:04:54.356Z,26.90
2022-09-12T01:05:54.336Z,24.00
2022-09-12T01:06:54.319Z,27.00
2022-09-12T01:07:54.325Z,24.60
2022-09-12T01:08:54.276Z,26.10
2022-09-12T01:09:54.261Z,27.50
2022-09-12T01:10:54.242Z,29.30
2022-09-12T01:11:54.219Z,26.20
2022-09-12T01:12:54.230Z,26.20
2022-09-12T01:13:54.182Z,26.20
2022-09-12T01:14:54.165Z,25.50
2022-09-12T01:15:54.145Z,27.40
2022-09-12T01:16:54.126Z,32.00
2022-09-12T01:17:54.130Z,26.30
2022-09-12T01:18:54.083Z,28.00
2022-09-12T01:19:54.062Z,25.40
2022-09-12T01:20:54.043Z,26.50
2022-09-12T01:21:54.026Z,29.60
2022-09-12T01:22:54.024Z,26.70
2022-09-12T01:23:54.983Z,25.20
2022-09-12T01:24:53.966Z,27.50
2022-09-12T01:25:53.941Z,28.10
2022-09-12T01:26:53.923Z,26.30
2022-09-12T01:27:53.929Z,25.50
2022-09-12T01:28:53.887Z,28.90
2022-09-12T01:29:53.870Z,29.40
2022-09-12T01:30:53.845Z,27.70
2022-09-12T01:31:53.884Z,24.60
2022-09-12T01:32:53.832Z,23.80
2022-09-12T01:33:53.782Z,25.00
2022-09-12T01:34:53.765Z,26.00
2022-09-12T01:35:53.746Z,24.10
2022-09-12T01:36:53.724Z,24.90
2022-09-12T01:37:53.732Z,27.00
2022-09-12T01:38:53.689Z,24.80
2022-09-12T01:39:53.731Z,27.30
2022-09-12T01:40:53.644Z,28.30
2022-09-12T01:41:53.630Z,25.00
2022-09-12T01:42:53.640Z,24.80
2022-09-12T01:43:53.593Z,25.20
2022-09-12T01:44:53.571Z,25.70
2022-09-12T01:45:53.586Z,24.60
2022-09-12T01:46:53.536Z,26.90
2022-09-12T01:47:53.547Z,27.70
2022-09-12T01:48:53.497Z,23.40
2022-09-12T01:49:53.498Z,26.30
2022-09-12T01:50:53.461Z,27.40
2022-09-12T01:51:53.436Z,24.10
2022-09-12T01:52:53.446Z,25.80
2022-09-12T01:53:53.396Z,28.60
2022-09-12T01:54:53.379Z,24.90
2022-09-12T01:55:53.360Z,26.50
2022-09-12T01:56:53.344Z,25.60
2022-09-12T01:57:53.336Z,24.00
2022-09-12T01:58:53.331Z,27.80
2022-09-12T01:59:53.284Z,26.90
2022-09-12T02:00:53.329Z,28.40
2022-09-12T02:01:53.266Z,26.30
2022-09-12T02:02:53.229Z,28.20
2022-09-12T02:03:53.233Z,27.70
2022-09-12T02:04:53.190Z,24.70
2022-09-12T02:05:53.178Z,30.30
2022-09-12T02:06:53.153Z,25.70
2022-09-12T02:07:53.132Z,28.40
2022-09-12T02:08:53.141Z,27.60
2022-09-12T02:09:53.098Z,28.70
2022-09-12T02:10:53.072Z,27.50
2022-09-12T02:11:53.059Z,26.90
2022-09-12T02:12:53.040Z,29.10
2022-09-12T02:13:53.051Z,28.00
2022-09-12T02:14:53.003Z,29.40
2022-09-12T02:15:52.981Z,26.80
2022-09-12T02:16:52.965Z,26.80
2022-09-12T02:17:52.951Z,27.20
2022-09-12T02:18:52.953Z,28.10
2022-09-12T02:19:52.907Z,25.70
2022-09-12T02:20:52.899Z,25.70
2022-09-12T02:21:52.870Z,26.60
2022-09-12T02:22:52.849Z,24.50
2022-09-12T02:23:52.860Z,27.40
2022-09-12T02:24:52.813Z,27.60
2022-09-12T02:25:52.794Z,24.60
2022-09-12T02:26:52.773Z,22.90
2022-09-12T02:27:52.753Z,25.30
2022-09-12T02:28:52.755Z,23.30
2022-09-12T02:29:53.718Z,24.20
2022-09-12T02:30:52.800Z,22.90
2022-09-12T02:31:52.678Z,26.00
2022-09-12T02:32:52.656Z,25.10
2022-09-12T02:33:52.664Z,27.80
2022-09-12T02:34:52.612Z,26.80
2022-09-12T02:35:52.595Z,25.30
2022-09-12T02:36:52.571Z,24.10
2022-09-12T02:37:52.553Z,25.90
2022-09-12T02:38:52.562Z,25.20
2022-09-12T02:39:52.531Z,26.70
2022-09-12T02:40:52.498Z,27.20
2022-09-12T02:41:52.477Z,26.90
2022-09-12T02:42:52.450Z,28.60
2022-09-12T02:43:52.459Z,27.00
2022-09-12T02:44:52.419Z,28.00
2022-09-12T02:45:52.518Z,30.50
2022-09-12T02:46:52.373Z,28.80
2022-09-12T02:47:52.357Z,28.50
2022-09-12T02:48:52.361Z,28.80
2022-09-12T02:49:52.323Z,27.20
2022-09-12T02:50:52.295Z,29.90
2022-09-12T02:51:53.275Z,30.10
2022-09-12T02:52:52.256Z,29.60
2022-09-12T02:53:52.281Z,27.60
2022-09-12T02:54:52.216Z,28.90
2022-09-12T02:55:52.200Z,29.60
2022-09-12T02:56:52.178Z,29.20
2022-09-12T02:57:52.166Z,29.50
2022-09-12T02:58:52.166Z,31.80
2022-09-12T02:59:52.121Z,30.50
2022-09-12T03:00:52.117Z,27.90
2022-09-12T03:01:52.108Z,28.40
2022-09-12T03:02:52.067Z,31.50
2022-09-12T03:03:52.069Z,32.50
2022-09-12T03:04:52.017Z,30.90
2022-09-12T03:05:52.003Z,30.00
2022-09-12T03:06:51.981Z,30.00
2022-09-12T03:07:51.962Z,32.10
2022-09-12T03:08:51.968Z,33.50
2022-09-12T03:09:51.955Z,32.60
2022-09-12T03:10:51.904Z,36.40
2022-09-12T03:11:51.880Z,37.00
2022-09-12T03:12:51.866Z,34.80
2022-09-12T03:13:51.882Z,37.80
2022-09-12T03:14:51.826Z,33.50
2022-09-12T03:15:51.810Z,32.60
2022-09-12T03:16:51.787Z,30.70
2022-09-12T03:17:51.779Z,34.20
2022-09-12T03:18:51.767Z,31.20
2022-09-12T03:19:52.730Z,28.90
2022-09-12T03:20:51.710Z,26.60
2022-09-12T03:21:51.693Z,30.20
2022-09-12T03:22:51.672Z,28.10
2022-09-12T03:23:51.670Z,28.30
2022-09-12T03:24:51.630Z,25.60
2022-09-12T03:25:51.641Z,27.30
2022-09-12T03:26:51.587Z,26.50
2022-09-12T03:27:51.561Z,24.60
2022-09-12T03:28:51.574Z,27.00
2022-09-12T03:29:51.532Z,27.10
2022-09-12T03:30:51.609Z,27.00
2022-09-12T03:31:51.487Z,25.60
2022-09-12T03:32:51.468Z,26.30
2022-09-12T03:33:51.472Z,27.70
2022-09-12T03:34:51.423Z,26.30
2022-09-12T03:35:51.411Z,26.50
2022-09-12T03:36:51.388Z,28.50
2022-09-12T03:37:51.372Z,28.10
2022-09-12T03:38:51.376Z,25.60
2022-09-12T03:39:51.372Z,25.60
2022-09-12T03:40:54.717Z,27.80
2022-09-12T03:41:52.327Z,28.30
2022-09-12T03:42:51.277Z,26.80
2022-09-12T03:43:51.282Z,27.20
2022-09-12T03:44:51.242Z,28.50
2022-09-12T03:45:51.250Z,28.40
2022-09-12T03:46:51.201Z,27.60
2022-09-12T03:47:51.182Z,29.10
2022-09-12T03:48:51.191Z,25.80
2022-09-12T03:49:51.139Z,25.70
2022-09-12T03:50:51.122Z,26.00
2022-09-12T03:51:51.103Z,29.70
2022-09-12T03:52:51.084Z,29.30
2022-09-12T03:53:51.094Z,31.90
2022-09-12T03:54:51.052Z,28.10
2022-09-12T03:55:51.029Z,28.10
2022-09-12T03:56:51.011Z,31.20
2022-09-12T03:57:50.992Z,30.70
2022-09-12T03:58:51.025Z,32.80
2022-09-12T03:59:50.961Z,32.70
2022-09-12T04:00:50.959Z,33.60
2022-09-12T04:01:50.934Z,33.10
2022-09-12T04:02:50.900Z,36.10
2022-09-12T04:03:50.911Z,35.40
2022-09-12T04:04:50.862Z,33.70
2022-09-12T04:05:50.841Z,35.70
2022-09-12T04:06:50.824Z,33.90
2022-09-12T04:07:50.801Z,32.50
2022-09-12T04:08:50.810Z,37.30
2022-09-12T04:09:50.761Z,33.90
2022-09-12T04:10:50.741Z,39.50
2022-09-12T04:11:50.720Z,33.90
2022-09-12T04:12:50.700Z,36.10
2022-09-12T04:13:50.710Z,33.70
2022-09-12T04:14:50.666Z,35.20
2022-09-12T04:15:50.646Z,36.30
2022-09-12T04:16:50.655Z,38.50
2022-09-12T04:17:50.604Z,40.00
2022-09-12T04:18:50.617Z,35.90
2022-09-12T04:19:50.570Z,35.80
2022-09-12T04:20:50.549Z,34.90
2022-09-12T04:21:50.530Z,33.50
2022-09-12T04:22:50.513Z,32.70
2022-09-12T04:23:50.521Z,40.30
2022-09-12T04:24:50.477Z,38.20
2022-09-12T04:25:50.458Z,37.30
2022-09-12T04:26:50.435Z,36.10
2022-09-12T04:27:50.418Z,40.40
2022-09-12T04:28:50.424Z,41.00
2022-09-12T04:29:50.380Z,37.10
2022-09-12T04:30:50.403Z,37.50
2022-09-12T04:31:50.337Z,32.90
2022-09-12T04:32:50.320Z,34.30
2022-09-12T04:33:50.325Z,33.30
2022-09-12T04:34:50.285Z,33.70
2022-09-12T04:35:50.254Z,36.70
2022-09-12T04:36:51.242Z,37.80
2022-09-12T04:37:50.227Z,34.20
2022-09-12T04:38:50.229Z,33.90
2022-09-12T04:39:50.257Z,37.20
2022-09-12T04:40:50.163Z,34.80
2022-09-12T04:41:50.144Z,39.10
2022-09-12T04:42:50.121Z,37.90
2022-09-12T04:43:50.129Z,35.90
2022-09-12T04:44:50.082Z,32.20
2022-09-12T04:45:50.088Z,30.90
2022-09-12T04:46:50.045Z,32.10
2022-09-12T04:47:50.027Z,30.80
2022-09-12T04:48:54.470Z,30.80
2022-09-12T04:49:51.992Z,29.50
2022-09-12T04:50:49.972Z,28.70
2022-09-12T04:51:49.960Z,27.00
2022-09-12T04:52:49.941Z,27.20
2022-09-12T04:53:49.948Z,25.30
2022-09-12T04:54:49.931Z,26.30
2022-09-12T04:55:49.882Z,23.70
2022-09-12T04:56:49.863Z,22.20
2022-09-12T04:57:49.845Z,24.20
2022-09-12T04:58:49.851Z,23.40
2022-09-12T04:59:49.808Z,24.30
2022-09-12T05:00:49.785Z,23.70
2022-09-12T05:01:49.832Z,22.90
2022-09-12T05:02:49.754Z,22.40
2022-09-12T05:03:49.756Z,23.80
2022-09-12T05:04:49.708Z,22.10
2022-09-12T05:05:53.259Z,23.90
2022-09-12T05:06:50.671Z,23.90
2022-09-12T05:07:49.653Z,25.60
2022-09-12T05:08:49.658Z,23.50
2022-09-12T05:09:49.614Z,25.60
2022-09-12T05:10:49.596Z,24.80
2022-09-12T05:12:05.678Z,23.60
2022-09-12T05:12:51.558Z,20.60
2022-09-12T05:13:49.565Z,23.30
2022-09-12T05:14:49.519Z,18.30
2022-09-12T05:15:49.498Z,22.70
2022-09-12T05:16:49.896Z,17.80
2022-09-12T05:17:50.454Z,18.30
2022-09-12T05:18:49.463Z,17.30
2022-09-12T05:19:49.413Z,17.30
2022-09-12T05:20:49.391Z,14.50
2022-09-12T05:21:49.369Z,16.00
2022-09-12T05:22:49.351Z,14.20
2022-09-12T05:23:49.353Z,13.20
2022-09-12T05:24:50.767Z,14.50
2022-09-12T05:25:50.279Z,13.60
2022-09-12T05:26:49.254Z,15.50
2022-09-12T05:27:50.595Z,15.40
2022-09-12T05:28:50.246Z,12.80
2022-09-12T05:29:49.194Z,12.10
2022-09-12T05:30:49.237Z,11.90
2022-09-12T05:31:49.158Z,12.20
2022-09-12T05:32:49.135Z,12.60
2022-09-12T05:33:49.140Z,12.90
2022-09-12T05:34:49.095Z,12.70
2022-09-12T05:35:49.078Z,12.40
2022-09-12T05:36:49.058Z,13.10
2022-09-12T05:37:49.039Z,12.60
2022-09-12T05:38:49.047Z,13.60
2022-09-12T05:39:49.054Z,12.40
2022-09-12T05:40:48.983Z,13.50
2022-09-12T05:41:48.965Z,12.70
2022-09-12T05:42:48.943Z,11.30
2022-09-12T05:43:48.951Z,10.60
2022-09-12T05:44:48.905Z,10.30
2022-09-12T05:45:49.007Z,9.90
2022-09-12T05:46:48.864Z,10.70
2022-09-12T05:47:48.842Z,9.70
2022-09-12T05:48:52.494Z,10.10
2022-09-12T05:49:49.807Z,11.40
2022-09-12T05:50:48.789Z,10.40
2022-09-12T05:51:48.767Z,9.20
2022-09-12T05:52:48.751Z,11.10
2022-09-12T05:53:48.760Z,9.80
2022-09-12T05:54:48.712Z,8.60
2022-09-12T05:55:48.694Z,13.50
2022-09-12T05:56:48.685Z,10.30
2022-09-12T05:57:48.667Z,9.90
2022-09-12T05:58:48.673Z,9.60
2022-09-12T05:59:48.632Z,9.00
2022-09-12T06:00:48.612Z,9.50
2022-09-12T06:01:48.807Z,9.50
2022-09-12T06:02:48.573Z,9.20
2022-09-12T06:03:48.582Z,10.40
2022-09-12T06:04:48.540Z,10.50
2022-09-12T06:05:50.627Z,8.00
2022-09-12T06:06:49.498Z,9.40
2022-09-12T06:07:48.478Z,8.20
2022-09-12T06:08:48.515Z,8.40
2022-09-12T06:09:48.444Z,9.60
2022-09-12T06:10:48.427Z,9.40
2022-09-12T06:11:48.410Z,7.90
2022-09-12T06:12:48.390Z,8.40
2022-09-12T06:13:48.402Z,8.00
2022-09-12T06:14:48.352Z,9.10
2022-09-12T06:15:48.339Z,8.40
2022-09-12T06:16:48.554Z,7.80
2022-09-12T06:17:51.308Z,8.00
2022-09-12T06:18:49.306Z,8.40
2022-09-12T06:19:48.264Z,9.90
2022-09-12T06:20:48.247Z,8.30
2022-09-12T06:21:48.233Z,8.30
2022-09-12T06:22:48.214Z,8.00
2022-09-12T06:23:48.225Z,8.70
2022-09-12T06:24:48.177Z,7.90
2022-09-12T06:25:48.165Z,9.20
2022-09-12T06:26:48.145Z,8.90
2022-09-12T06:27:48.126Z,8.30
2022-09-12T06:28:48.159Z,9.80
2022-09-12T06:29:48.101Z,7.60
2022-09-12T06:30:48.121Z,8.90
2022-09-12T06:31:48.056Z,7.80
2022-09-12T06:32:48.041Z,9.30
2022-09-12T06:33:48.054Z,7.60
2022-09-12T06:34:48.017Z,8.50
2022-09-12T06:35:47.994Z,9.00
2022-09-12T06:36:47.984Z,7.50
2022-09-12T06:37:47.959Z,8.90
2022-09-12T06:38:47.969Z,9.70
2022-09-12T06:39:47.972Z,7.80
2022-09-12T06:40:47.905Z,9.60
2022-09-12T06:41:47.887Z,8.20
2022-09-12T06:42:47.871Z,7.40
2022-09-12T06:43:47.894Z,9.20
2022-09-12T06:44:47.837Z,7.70
2022-09-12T06:45:47.867Z,8.90
2022-09-12T06:46:47.798Z,6.90
2022-09-12T06:47:47.784Z,6.60
2022-09-12T06:48:47.924Z,10.90
2022-09-12T06:49:47.749Z,8.10
2022-09-12T06:50:47.732Z,7.80
2022-09-12T06:51:47.720Z,8.30
2022-09-12T06:52:47.699Z,7.90
2022-09-12T06:53:47.710Z,8.60
2022-09-12T06:54:47.673Z,9.10
2022-09-12T06:55:47.649Z,7.80
2022-09-12T06:56:47.639Z,8.10
2022-09-12T06:57:47.614Z,8.40
2022-09-12T06:58:47.783Z,7.20
2022-09-12T06:59:47.587Z,7.70
2022-09-12T07:00:47.570Z,9.40
2022-09-12T07:01:47.568Z,7.90
2022-09-12T07:02:47.539Z,8.00
2022-09-12T07:03:47.542Z,9.30
2022-09-12T07:04:47.499Z,8.50
2022-09-12T07:05:47.480Z,8.30
2022-09-12T07:06:47.470Z,7.80
2022-09-12T07:07:47.449Z,8.30
2022-09-12T07:08:47.455Z,7.70
2022-09-12T07:09:47.412Z,8.00
2022-09-12T07:10:47.396Z,8.00
2022-09-12T07:11:47.395Z,8.80
2022-09-12T07:12:47.364Z,7.10
2022-09-12T07:13:47.554Z,8.50
2022-09-12T07:14:47.332Z,8.00
2022-09-12T07:15:47.318Z,7.60
2022-09-12T07:16:47.319Z,7.20
2022-09-12T07:17:47.287Z,8.40
2022-09-12T07:18:47.292Z,7.10
2022-09-12T07:19:47.252Z,7.60
2022-09-12T07:20:47.224Z,7.90
2022-09-12T07:21:47.213Z,7.50
2022-09-12T07:22:47.192Z,7.10
2022-09-12T07:23:47.282Z,7.50
2022-09-12T07:24:47.162Z,6.60
2022-09-12T07:25:47.139Z,6.80
2022-09-12T07:26:48.133Z,7.40
2022-09-12T07:27:51.026Z,7.60
2022-09-12T07:28:48.124Z,7.40
2022-09-12T07:29:47.081Z,7.80
2022-09-12T07:30:47.102Z,8.10
2022-09-12T07:31:47.043Z,7.30
2022-09-12T07:32:47.030Z,7.20
2022-09-12T07:33:51.186Z,7.60
2022-09-12T07:34:48.000Z,6.50
2022-09-12T07:35:46.984Z,6.90
2022-09-12T07:36:46.992Z,6.90
2022-09-12T07:37:46.943Z,8.50
2022-09-12T07:38:47.038Z,6.80
2022-09-12T07:39:46.971Z,8.80
2022-09-12T07:40:46.893Z,7.00
2022-09-12T07:41:46.878Z,6.30
2022-09-12T07:42:46.863Z,6.90
2022-09-12T07:43:46.956Z,7.80
2022-09-12T07:44:46.832Z,6.90
2022-09-12T07:45:46.860Z,7.30
2022-09-12T07:46:46.798Z,6.00
2022-09-12T07:47:46.778Z,5.90
2022-09-12T07:48:46.789Z,6.20
2022-09-12T07:49:46.745Z,7.00
2022-09-12T07:50:46.728Z,7.30
2022-09-12T07:51:46.712Z,5.70
2022-09-12T07:52:46.688Z,6.10
2022-09-12T07:53:46.751Z,7.00
2022-09-12T07:54:46.662Z,6.30
2022-09-12T07:55:46.652Z,6.10
2022-09-12T07:56:46.631Z,6.10
2022-09-12T07:57:46.609Z,6.70
2022-09-12T07:58:46.626Z,7.00
2022-09-12T07:59:52.857Z,6.30
2022-09-12T08:00:48.564Z,6.60
2022-09-12T08:01:46.565Z,6.60
2022-09-12T08:02:46.580Z,7.10
2022-09-12T08:03:46.585Z,6.70
2022-09-12T08:04:46.493Z,5.80
2022-09-12T08:05:46.471Z,5.30
2022-09-12T08:06:46.459Z,7.00
2022-09-12T08:07:46.443Z,7.20
2022-09-12T08:08:46.450Z,6.50
2022-09-12T08:09:46.406Z,5.90
2022-09-12T08:10:46.392Z,5.70
2022-09-12T08:11:46.375Z,6.90
2022-09-12T08:12:46.358Z,6.60
2022-09-12T08:13:46.443Z,6.60
2022-09-12T08:14:46.324Z,7.00
2022-09-12T08:15:46.341Z,8.40
2022-09-12T08:16:46.291Z,6.70
2022-09-12T08:17:46.274Z,6.50
2022-09-12T08:18:46.279Z,6.60
2022-09-12T08:19:46.238Z,6.60
2022-09-12T08:20:46.222Z,4.70
2022-09-12T08:21:46.206Z,5.70
2022-09-12T08:22:46.194Z,6.30
2022-09-12T08:23:46.299Z,6.00
2022-09-12T08:24:46.152Z,6.70
2022-09-12T08:25:46.135Z,7.40
2022-09-12T08:26:46.117Z,6.10
2022-09-12T08:27:46.289Z,5.30
2022-09-12T08:28:47.107Z,5.40
2022-09-12T08:29:46.063Z,4.80
2022-09-12T08:30:46.088Z,4.70
2022-09-12T08:31:46.028Z,5.20
2022-09-12T08:32:46.019Z,5.60
2022-09-12T08:33:46.112Z,6.30
2022-09-12T08:34:45.977Z,5.20
2022-09-12T08:35:45.960Z,5.50
2022-09-12T08:36:45.947Z,6.00
2022-09-12T08:37:45.923Z,5.20
2022-09-12T08:38:45.934Z,5.60
2022-09-12T08:39:45.900Z,5.10
2022-09-12T08:40:45.884Z,6.30
2022-09-12T08:41:45.853Z,5.60
2022-09-12T08:42:45.841Z,7.30
2022-09-12T08:43:45.861Z,6.40
2022-09-12T08:44:45.801Z,4.90
2022-09-12T08:45:45.828Z,5.50
2022-09-12T08:46:45.764Z,6.30
2022-09-12T08:47:45.748Z,6.50
2022-09-12T08:48:45.768Z,7.50
2022-09-12T08:49:45.709Z,6.50
2022-09-12T08:50:49.819Z,6.10
2022-09-12T08:51:46.675Z,5.80
2022-09-12T08:52:45.657Z,7.30
2022-09-12T08:53:45.788Z,5.50
2022-09-12T08:54:45.627Z,7.50
2022-09-12T08:55:45.609Z,7.10
2022-09-12T08:56:45.592Z,6.00
2022-09-12T08:57:45.572Z,6.40
2022-09-12T08:58:45.551Z,5.70
2022-09-12T08:59:45.562Z,5.60
2022-09-12T09:00:45.513Z,5.80
2022-09-12T09:01:45.609Z,6.30
2022-09-12T09:02:45.537Z,5.70
2022-09-12T09:03:45.587Z,6.70
2022-09-12T09:04:45.445Z,5.50
2022-09-12T09:05:45.428Z,5.40
2022-09-12T09:06:45.410Z,6.20
2022-09-12T09:07:45.395Z,5.90
2022-09-12T09:08:45.413Z,6.10
2022-09-12T09:09:45.357Z,6.20
2022-09-12T09:10:45.344Z,6.20
2022-09-12T09:11:45.325Z,5.80
2022-09-12T09:12:45.311Z,6.40
2022-09-12T09:13:45.331Z,6.50
2022-09-12T09:14:45.281Z,6.80
2022-09-12T09:15:45.307Z,7.10
2022-09-12T09:16:45.234Z,6.60
2022-09-12T09:17:45.218Z,6.30
2022-09-12T09:18:45.217Z,4.90
2022-09-12T09:19:50.104Z,6.10
2022-09-12T09:20:46.161Z,6.80
2022-09-12T09:21:45.142Z,7.00
2022-09-12T09:22:45.124Z,7.90
2022-09-12T09:23:45.185Z,5.80
2022-09-12T09:24:45.086Z,5.60
2022-09-12T09:25:45.067Z,7.10
2022-09-12T09:26:45.048Z,7.00
2022-09-12T09:27:45.030Z,6.40
2022-09-12T09:28:45.043Z,6.40
2022-09-12T09:29:44.994Z,7.50
2022-09-12T09:30:45.029Z,6.90
2022-09-12T09:31:44.960Z,7.70
2022-09-12T09:32:44.952Z,6.90
2022-09-12T09:33:44.999Z,5.60
2022-09-12T09:34:44.899Z,7.20
2022-09-12T09:35:44.891Z,6.60
2022-09-12T09:36:44.865Z,7.00
2022-09-12T09:37:44.845Z,7.10
2022-09-12T09:38:44.946Z,6.80
2022-09-12T09:39:44.857Z,6.90
2022-09-12T09:40:44.792Z,6.20
2022-09-12T09:41:44.777Z,6.90
2022-09-12T09:42:44.760Z,7.50
2022-09-12T09:43:44.769Z,5.90
2022-09-12T09:44:44.716Z,7.90
2022-09-12T09:45:47.339Z,6.40
2022-09-12T09:46:44.680Z,6.30
2022-09-12T09:47:44.663Z,5.90
2022-09-12T09:48:44.720Z,6.90
2022-09-12T09:49:44.633Z,7.60
2022-09-12T09:50:44.614Z,6.50
2022-09-12T09:51:44.593Z,7.20
2022-09-12T09:52:44.576Z,5.70
2022-09-12T09:53:44.585Z,7.80
2022-09-12T09:54:44.538Z,7.10
2022-09-12T09:55:44.518Z,6.50
2022-09-12T09:56:44.500Z,7.60
2022-09-12T09:57:44.482Z,7.60
2022-09-12T09:58:44.529Z,6.40
2022-09-12T09:59:44.444Z,8.00
2022-09-12T10:00:44.423Z,8.20
2022-09-12T10:01:44.462Z,8.20
2022-09-12T10:02:44.396Z,8.90
2022-09-12T10:03:44.457Z,7.50
2022-09-12T10:04:44.348Z,7.00
2022-09-12T10:05:44.329Z,6.40
2022-09-12T10:06:44.306Z,5.90
2022-09-12T10:07:44.281Z,5.40
2022-09-12T10:08:45.393Z,6.50
2022-09-12T10:09:44.254Z,4.40
2022-09-12T10:10:44.241Z,6.50
2022-09-12T10:11:46.061Z,8.30
2022-09-12T10:12:45.197Z,6.50
2022-09-12T10:13:44.309Z,8.00
2022-09-12T10:14:44.158Z,6.60
2022-09-12T10:15:44.186Z,6.50
2022-09-12T10:16:44.121Z,8.40
2022-09-12T10:17:44.102Z,10.60
2022-09-12T10:18:44.109Z,7.60
2022-09-12T10:19:45.549Z,7.50
2022-09-12T10:20:44.043Z,6.50
2022-09-12T10:21:44.026Z,7.00
2022-09-12T10:22:44.008Z,6.80
2022-09-12T10:23:44.014Z,9.50
2022-09-12T10:24:43.971Z,9.00
2022-09-12T10:25:43.953Z,8.50
2022-09-12T10:26:43.936Z,8.30
2022-09-12T10:27:43.916Z,8.50
2022-09-12T10:28:43.919Z,10.40
2022-09-12T10:29:43.879Z,11.30
2022-09-12T10:30:43.911Z,7.50
2022-09-12T10:31:43.846Z,7.80
2022-09-12T10:32:43.823Z,8.30
2022-09-12T10:33:43.833Z,8.30
2022-09-12T10:34:43.786Z,7.90
2022-09-12T10:35:43.774Z,7.30
2022-09-12T10:36:43.760Z,9.30
2022-09-12T10:37:43.734Z,8.00
2022-09-12T10:38:43.740Z,7.20
2022-09-12T10:39:43.725Z,9.00
2022-09-12T10:40:43.680Z,8.50
2022-09-12T10:41:43.661Z,9.90
2022-09-12T10:42:43.651Z,8.60
2022-09-12T10:43:43.652Z,7.70
2022-09-12T10:44:43.605Z,10.10
2022-09-12T10:45:43.622Z,8.80
2022-09-12T10:46:43.565Z,10.40
2022-09-12T10:47:43.557Z,10.70
2022-09-12T10:48:43.559Z,8.00
2022-09-12T10:49:43.511Z,9.90
2022-09-12T10:50:43.493Z,10.40
2022-09-12T10:51:43.476Z,10.00
2022-09-12T10:52:43.455Z,9.70
2022-09-12T10:53:43.472Z,9.30
2022-09-12T10:54:43.420Z,8.80
2022-09-12T10:55:43.399Z,9.10
2022-09-12T10:56:43.381Z,8.30
2022-09-12T10:57:43.359Z,8.60
2022-09-12T10:58:43.374Z,10.70
2022-09-12T10:59:43.320Z,9.40
2022-09-12T11:00:43.304Z,8.60
2022-09-12T11:01:43.358Z,7.80
2022-09-12T11:02:43.303Z,8.30
2022-09-12T11:03:43.280Z,7.50
2022-09-12T11:04:43.244Z,8.00
2022-09-12T11:05:44.206Z,8.40
2022-09-12T11:06:43.192Z,7.30
2022-09-12T11:07:43.167Z,9.20
2022-09-12T11:08:43.178Z,9.50
2022-09-12T11:09:43.135Z,8.30
2022-09-12T11:10:44.557Z,9.80
2022-09-12T11:11:44.087Z,9.30
2022-09-12T11:12:43.069Z,8.70
2022-09-12T11:13:43.150Z,9.80
2022-09-12T11:14:43.036Z,8.80
2022-09-12T11:15:43.036Z,8.90
2022-09-12T11:16:43.272Z,8.70
2022-09-12T11:17:43.976Z,8.50
2022-09-12T11:18:42.985Z,7.60
2022-09-12T11:19:42.952Z,9.00
2022-09-12T11:20:42.924Z,9.30
2022-09-12T11:21:42.903Z,8.80
2022-09-12T11:22:42.882Z,8.20
2022-09-12T11:23:42.896Z,8.10
2022-09-12T11:24:42.842Z,9.90
2022-09-12T11:25:42.827Z,8.80
2022-09-12T11:26:42.805Z,8.10
2022-09-12T11:27:42.783Z,9.30
2022-09-12T11:28:46.674Z,9.00
2022-09-12T11:29:43.750Z,8.90
2022-09-12T11:30:42.757Z,9.40
2022-09-12T11:31:42.712Z,8.50
2022-09-12T11:32:42.694Z,7.30
2022-09-12T11:33:43.266Z,9.40
2022-09-12T11:34:43.685Z,9.20
2022-09-12T11:35:42.633Z,8.00
2022-09-12T11:36:42.616Z,8.60
2022-09-12T11:37:42.611Z,7.90
2022-09-12T11:38:42.605Z,8.40
2022-09-12T11:39:42.591Z,8.70
2022-09-12T11:40:42.538Z,9.30
2022-09-12T11:41:42.521Z,9.20
2022-09-12T11:42:42.503Z,7.80
2022-09-12T11:43:42.556Z,8.10
2022-09-12T11:44:42.487Z,8.60
2022-09-12T11:45:42.492Z,9.50
2022-09-12T11:46:42.412Z,9.00
2022-09-12T11:47:43.400Z,7.30
2022-09-12T11:48:42.495Z,9.10
2022-09-12T11:49:42.358Z,8.00
2022-09-12T11:50:42.346Z,7.50
2022-09-12T11:51:42.326Z,8.00
2022-09-12T11:52:42.306Z,7.90
2022-09-12T11:53:42.344Z,11.10
2022-09-12T11:54:42.300Z,10.00
2022-09-12T11:55:42.249Z,7.90
2022-09-12T11:56:42.230Z,9.60
2022-09-12T11:57:42.213Z,10.00
2022-09-12T11:58:42.243Z,9.30
2022-09-12T11:59:42.200Z,9.60
2022-09-12T12:00:42.155Z,9.30
2022-09-12T12:01:47.673Z,8.50
2022-09-12T12:02:44.172Z,8.20
2022-09-12T12:03:42.133Z,8.80
2022-09-12T12:04:42.104Z,9.70
2022-09-12T12:05:42.064Z,8.40
2022-09-12T12:06:42.048Z,8.70
2022-09-12T12:07:45.405Z,8.70
2022-09-12T12:08:43.004Z,10.10
2022-09-12T12:09:42.020Z,8.50
2022-09-12T12:10:41.970Z,9.20
2022-09-12T12:11:41.954Z,7.80
2022-09-12T12:12:41.933Z,7.60
2022-09-12T12:13:41.912Z,8.50
2022-09-12T12:14:41.918Z,8.80
2022-09-12T12:15:41.923Z,8.10
2022-09-12T12:16:41.856Z,6.90
2022-09-12T12:17:41.839Z,7.90
2022-09-12T12:18:41.820Z,8.80
2022-09-12T12:19:41.826Z,7.40
2022-09-12T12:20:41.777Z,7.80
2022-09-12T12:21:41.756Z,8.50
2022-09-12T12:22:41.739Z,8.30
2022-09-12T12:23:41.760Z,9.40
2022-09-12T12:24:41.729Z,9.40
2022-09-12T12:25:41.685Z,8.70
2022-09-12T12:26:41.660Z,9.00
2022-09-12T12:27:41.639Z,8.90
2022-09-12T12:28:41.624Z,8.40
2022-09-12T12:29:43.925Z,8.50
2022-09-12T12:30:42.609Z,8.70
2022-09-12T12:31:41.572Z,7.90
2022-09-12T12:32:41.550Z,9.10
2022-09-12T12:33:41.532Z,8.90
2022-09-12T12:34:41.538Z,8.60
2022-09-12T12:35:41.491Z,8.10
2022-09-12T12:36:41.477Z,8.90
2022-09-12T12:37:41.454Z,7.60
2022-09-12T12:38:41.501Z,8.30
2022-09-12T12:39:41.470Z,9.00
2022-09-12T12:40:41.398Z,7.20
2022-09-12T12:41:41.379Z,10.10
2022-09-12T12:42:41.359Z,9.00
2022-09-12T12:43:41.344Z,9.50
2022-09-12T12:44:41.347Z,8.10
2022-09-12T12:45:41.300Z,9.40
2022-09-12T12:46:41.321Z,7.80
2022-09-12T12:47:41.265Z,7.50
2022-09-12T12:48:41.242Z,8.10
2022-09-12T12:49:41.263Z,9.40
2022-09-12T12:50:41.210Z,8.00
2022-09-12T12:51:41.185Z,9.00
2022-09-12T12:52:41.169Z,8.00
2022-09-12T12:53:41.147Z,8.60
2022-09-12T12:54:41.161Z,8.50
2022-09-12T12:55:41.115Z,7.60
2022-09-12T12:56:41.090Z,8.70
2022-09-12T12:57:41.068Z,7.20
2022-09-12T12:58:41.050Z,8.50
2022-09-12T12:59:41.107Z,8.30
2022-09-12T13:00:41.013Z,8.60
2022-09-12T13:01:41.116Z,7.70
2022-09-12T13:02:41.014Z,8.70
2022-09-12T13:03:41.007Z,8.80
2022-09-12T13:04:40.965Z,8.00
2022-09-12T13:05:40.924Z,7.70
2022-09-12T13:06:40.906Z,8.20